createdAt,value
2023-05-10T00:00:29.740Z,100600.59
2023-05-10T00:02:57.604Z,100584.84
2023-05-10T00:05:25.230Z,100584.84
2023-05-10T00:07:53.156Z,100577.91
2023-05-10T00:10:20.915Z,100575.28
2023-05-10T00:12:48.671Z,100581.38
2023-05-10T00:15:17.431Z,100577.84
2023-05-10T00:17:45.216Z,100577.00
2023-05-10T00:20:13.172Z,100579.63
2023-05-10T00:22:41.143Z,100568.25
2023-05-10T00:25:10.343Z,100572.63
2023-05-10T00:27:38.021Z,100565.63
2023-05-10T00:30:05.453Z,100568.25
2023-05-10T00:32:33.620Z,100565.63
2023-05-10T00:35:01.277Z,100563.03
2023-05-10T00:37:30.154Z,100565.63
2023-05-10T00:39:57.863Z,100560.44
2023-05-10T00:42:25.546Z,100557.81
2023-05-10T00:44:52.476Z,100559.53
2023-05-10T00:47:19.429Z,100547.31
2023-05-10T00:49:47.239Z,100548.19
2023-05-10T00:52:15.330Z,100559.53
2023-05-10T00:54:44.937Z,100556.91
2023-05-10T00:57:13.040Z,100553.41
2023-05-10T00:59:40.911Z,100554.28
2023-05-10T01:02:09.818Z,100555.13
2023-05-10T01:04:39.352Z,100540.28
2023-05-10T01:07:06.505Z,100540.28
2023-05-10T01:09:34.644Z,100541.13
2023-05-10T01:12:02.997Z,100535.03
2023-05-10T01:14:30.491Z,100539.38
2023-05-10T01:17:01.842Z,100528.03
2023-05-10T01:19:32.313Z,100535.88
2023-05-10T01:21:59.866Z,100536.72
2023-05-10T01:25:12.631Z,100539.31
2023-05-10T01:27:48.609Z,100536.69
2023-05-10T01:30:47.459Z,100533.25
2023-05-10T01:33:33.131Z,100533.13
2023-05-10T01:36:09.976Z,100529.50
2023-05-10T01:38:52.981Z,100529.44
2023-05-10T01:41:32.364Z,100529.41
2023-05-10T01:44:18.808Z,100523.94
2023-05-10T01:47:03.211Z,100526.56
2023-05-10T01:49:35.974Z,100523.13
2023-05-10T01:52:11.461Z,100524.84
2023-05-10T01:54:44.342Z,100511.81
2023-05-10T01:57:15.270Z,100516.06
2023-05-10T01:59:46.583Z,100516.97
2023-05-10T02:02:16.472Z,100509.13
2023-05-10T02:04:46.160Z,100498.72
2023-05-10T02:07:15.781Z,100497.88
2023-05-10T02:09:49.658Z,100492.69
2023-05-10T02:12:18.920Z,100493.47
2023-05-10T02:14:46.696Z,100491.78
2023-05-10T02:17:15.567Z,100496.03
2023-05-10T02:19:44.365Z,100490.81
2023-05-10T02:22:13.847Z,100482.09
2023-05-10T02:24:42.377Z,100485.63
2023-05-10T02:27:12.429Z,100487.38
2023-05-10T02:29:40.686Z,100495.97
2023-05-10T02:32:12.128Z,100491.59
2023-05-10T02:34:42.410Z,100496.78
2023-05-10T02:37:14.717Z,100505.31
2023-05-10T02:39:46.654Z,100500.94
2023-05-10T02:42:18.892Z,100501.00
2023-05-10T02:44:53.999Z,100499.16
2023-05-10T02:47:22.787Z,100493.06
2023-05-10T02:49:50.899Z,100503.47
2023-05-10T02:52:24.373Z,100492.97
2023-05-10T02:54:56.592Z,100493.81
2023-05-10T02:57:29.836Z,100490.34
2023-05-10T02:59:57.739Z,100489.50
2023-05-10T03:02:25.488Z,100485.09
2023-05-10T03:04:53.367Z,100493.66
2023-05-10T03:07:22.438Z,100486.50
2023-05-10T03:09:50.927Z,100498.72
2023-05-10T03:12:37.137Z,100491.66
2023-05-10T03:15:22.009Z,100483.00
2023-05-10T03:17:52.951Z,100493.31
2023-05-10T03:20:44.755Z,100490.63
2023-05-10T03:23:35.217Z,100486.34
2023-05-10T03:26:03.357Z,100482.84
2023-05-10T03:28:32.814Z,100477.53
2023-05-10T03:31:01.174Z,100484.69
2023-05-10T03:33:28.964Z,100483.09
2023-05-10T03:35:56.715Z,100481.44
2023-05-10T03:38:24.370Z,100476.25
2023-05-10T03:40:52.050Z,100482.41
2023-05-10T03:43:19.782Z,100489.91
2023-05-10T03:45:47.984Z,100483.94
2023-05-10T03:48:14.949Z,100488.47
2023-05-10T03:50:42.731Z,100490.41
2023-05-10T03:53:10.361Z,100489.66
2023-05-10T03:55:39.142Z,100490.63
2023-05-10T03:58:08.005Z,100492.38
2023-05-10T04:00:34.845Z,100489.66
2023-05-10T04:03:04.616Z,100496.38
2023-05-10T04:05:32.557Z,100500.66
2023-05-10T04:08:02.228Z,100492.06
2023-05-10T04:10:32.058Z,100491.38
2023-05-10T04:12:59.850Z,100500.94
2023-05-10T04:15:27.756Z,100498.41
2023-05-10T04:17:55.604Z,100504.50
2023-05-10T04:20:25.717Z,100499.28
2023-05-10T04:22:53.390Z,100496.75
2023-05-10T04:25:20.607Z,100504.56
2023-05-10T04:27:48.378Z,100494.97
2023-05-10T04:30:15.791Z,100494.09
2023-05-10T04:32:43.752Z,100498.50
2023-05-10T04:35:12.024Z,100490.69
2023-05-10T04:37:39.814Z,100496.75
2023-05-10T04:40:07.436Z,100492.44
2023-05-10T04:42:35.287Z,100491.59
2023-05-10T04:45:03.435Z,100492.41
2023-05-10T04:47:31.238Z,100489.03
2023-05-10T04:49:59.639Z,100491.41
2023-05-10T04:52:27.631Z,100490.69
2023-05-10T04:54:55.569Z,100493.38
2023-05-10T04:57:25.301Z,100484.75
2023-05-10T04:59:54.748Z,100482.13
2023-05-10T05:02:22.873Z,100489.06
2023-05-10T05:04:50.736Z,100485.31
2023-05-10T05:07:18.400Z,100486.31
2023-05-10T05:09:48.020Z,100478.66
2023-05-10T05:12:15.812Z,100484.66
2023-05-10T05:14:44.241Z,100482.06
2023-05-10T05:17:12.180Z,100489.06
2023-05-10T05:19:40.085Z,100478.69
2023-05-10T05:22:09.380Z,100481.38
2023-05-10T05:24:40.450Z,100488.38
2023-05-10T05:27:08.308Z,100488.50
2023-05-10T05:29:35.170Z,100492.03
2023-05-10T05:32:03.315Z,100494.75
2023-05-10T05:34:31.141Z,100487.75
2023-05-10T05:36:58.855Z,100488.66
2023-05-10T05:39:25.890Z,100487.84
2023-05-10T05:41:53.600Z,100487.03
2023-05-10T05:44:20.580Z,100492.31
2023-05-10T05:46:48.394Z,100490.53
2023-05-10T05:49:16.179Z,100489.72
2023-05-10T05:51:43.212Z,100498.41
2023-05-10T05:54:11.112Z,100487.09
2023-05-10T05:56:38.989Z,100484.47
2023-05-10T05:59:05.936Z,100487.97
2023-05-10T06:01:33.698Z,100484.53
2023-05-10T06:04:00.747Z,100486.22
2023-05-10T06:06:28.967Z,100482.72
2023-05-10T06:08:56.749Z,100496.72
2023-05-10T06:11:24.983Z,100488.84
2023-05-10T06:13:52.045Z,100501.06
2023-05-10T06:16:19.870Z,100501.06
2023-05-10T06:18:48.564Z,100506.31
2023-05-10T06:21:17.310Z,100502.81
2023-05-10T06:23:45.085Z,100495.81
2023-05-10T06:26:12.113Z,100496.66
2023-05-10T06:28:40.245Z,100504.53
2023-05-10T06:31:08.357Z,100496.72
2023-05-10T06:33:35.257Z,100500.22
2023-05-10T06:36:05.113Z,100509.78
2023-05-10T06:38:32.073Z,100489.69
2023-05-10T06:40:59.717Z,100509.72
2023-05-10T06:43:27.611Z,100500.06
2023-05-10T06:45:56.335Z,100503.53
2023-05-10T06:48:25.133Z,100498.22
2023-05-10T06:50:53.034Z,100503.53
2023-05-10T06:53:20.730Z,100507.00
2023-05-10T06:55:50.950Z,100505.25
2023-05-10T06:58:17.849Z,100502.59
2023-05-10T07:00:46.546Z,100500.78
2023-05-10T07:03:14.296Z,100503.44
2023-05-10T07:05:42.182Z,100506.91
2023-05-10T07:08:09.538Z,100499.84
2023-05-10T07:10:37.340Z,100503.25
2023-05-10T07:13:05.081Z,100499.75
2023-05-10T07:15:34.726Z,100498.03
2023-05-10T07:18:01.669Z,100500.41
2023-05-10T07:20:30.552Z,100499.47
2023-05-10T07:23:00.072Z,100490.88
2023-05-10T07:25:27.730Z,100491.81
2023-05-10T07:27:55.352Z,100493.53
2023-05-10T07:30:24.716Z,100498.53
2023-05-10T07:32:52.582Z,100497.56
2023-05-10T07:35:20.309Z,100492.13
2023-05-10T07:37:48.063Z,100492.91
2023-05-10T07:40:16.916Z,100485.13
2023-05-10T07:42:45.724Z,100489.38
2023-05-10T07:45:13.358Z,100486.56
2023-05-10T07:47:40.969Z,100491.78
2023-05-10T07:50:08.784Z,100488.06
2023-05-10T07:52:37.712Z,100479.28
2023-05-10T07:55:05.837Z,100485.13
2023-05-10T07:57:33.470Z,100476.16
2023-05-10T08:00:01.404Z,100475.19
2023-05-10T08:02:29.071Z,100478.47
2023-05-10T08:04:58.400Z,100492.53
2023-05-10T08:07:26.264Z,100481.38
2023-05-10T08:09:54.078Z,100483.84
2023-05-10T08:12:21.004Z,100481.53
2023-05-10T08:14:49.802Z,100495.22
2023-05-10T08:17:19.338Z,100496.03
2023-05-10T08:19:48.888Z,100496.44
2023-05-10T08:22:17.650Z,100495.50
2023-05-10T08:24:45.400Z,100479.78
2023-05-10T08:27:14.896Z,100488.44
2023-05-10T08:29:50.137Z,100489.97
2023-05-10T08:32:19.023Z,100479.25
2023-05-10T08:34:45.992Z,100483.44
2023-05-10T08:37:14.496Z,100487.88
2023-05-10T08:39:42.901Z,100475.44
2023-05-10T08:42:13.737Z,100466.13
2023-05-10T08:44:43.631Z,100474.06
2023-05-10T08:47:12.672Z,100473.91
2023-05-10T08:49:40.674Z,100469.28
2023-05-10T08:52:12.631Z,100479.09
2023-05-10T08:54:40.505Z,100470.22
2023-05-10T08:57:08.010Z,100470.16
2023-05-10T08:59:35.852Z,100472.44
2023-05-10T09:02:07.273Z,100465.97
2023-05-10T09:04:36.437Z,100471.56
2023-05-10T09:07:04.195Z,100452.69
2023-05-10T09:09:32.817Z,100462.44
2023-05-10T09:11:59.849Z,100463.53
2023-05-10T09:14:28.249Z,100469.25
2023-05-10T09:16:57.717Z,100458.31
2023-05-10T09:19:25.589Z,100463.03
2023-05-10T09:21:52.489Z,100461.53
2023-05-10T09:24:20.179Z,100450.44
2023-05-10T09:26:49.586Z,100453.91
2023-05-10T09:29:17.843Z,100448.09
2023-05-10T09:31:55.937Z,100455.25
2023-05-10T09:34:31.655Z,100442.81
2023-05-10T09:37:05.615Z,100445.09
2023-05-10T09:39:35.071Z,100448.66
2023-05-10T09:42:10.060Z,100442.31
2023-05-10T09:44:39.165Z,100445.50
2023-05-10T09:47:08.033Z,100452.13
2023-05-10T09:49:36.288Z,100448.69
2023-05-10T09:52:07.954Z,100448.13
2023-05-10T09:54:35.652Z,100441.47
2023-05-10T09:57:02.915Z,100451.91
2023-05-10T09:59:31.472Z,100439.97
2023-05-10T10:02:01.859Z,100440.59
2023-05-10T10:04:31.907Z,100431.63
2023-05-10T10:07:05.382Z,100432.78
2023-05-10T10:09:35.942Z,100432.06
2023-05-10T10:12:05.794Z,100433.66
2023-05-10T10:14:32.930Z,100432.13
2023-05-10T10:19:35.352Z,100429.53
2023-05-10T10:22:02.299Z,100428.50
2023-05-10T10:24:31.224Z,100429.97
2023-05-10T10:27:10.371Z,100422.63
2023-05-10T10:30:14.346Z,100424.38
2023-05-10T10:33:28.319Z,100412.44
2023-05-10T10:35:59.178Z,100410.22
2023-05-10T10:38:26.905Z,100411.78
2023-05-10T10:41:27.648Z,100406.31
2023-05-10T10:44:27.920Z,100403.75
2023-05-10T10:47:34.739Z,100393.66
2023-05-10T10:50:01.773Z,100392.06
2023-05-10T10:52:36.068Z,100387.66
2023-05-10T10:55:10.328Z,100385.47
2023-05-10T10:58:01.656Z,100374.59
2023-05-10T11:00:38.021Z,100375.75
2023-05-10T11:03:09.699Z,100369.19
2023-05-10T11:05:50.593Z,100370.94
2023-05-10T11:08:32.783Z,100372.19
2023-05-10T11:11:04.615Z,100368.25
2023-05-10T11:13:35.254Z,100361.16
2023-05-10T11:16:19.284Z,100359.75
2023-05-10T11:18:58.975Z,100340.63
2023-05-10T11:21:27.837Z,100358.88
2023-05-10T11:23:59.170Z,100357.69
2023-05-10T11:26:32.537Z,100357.09
2023-05-10T11:29:02.965Z,100356.22
2023-05-10T11:31:32.015Z,100350.72
2023-05-10T11:34:02.843Z,100359.72
2023-05-10T11:36:35.654Z,100361.53
2023-05-10T11:39:04.819Z,100360.44
2023-05-10T11:41:33.059Z,100355.34
2023-05-10T11:44:00.828Z,100354.41
2023-05-10T11:46:29.699Z,100353.47
2023-05-10T11:49:03.163Z,100356.91
2023-05-10T11:51:34.279Z,100358.50
2023-05-10T11:54:10.532Z,100343.19
2023-05-10T11:56:40.737Z,100352.75
2023-05-10T11:59:27.076Z,100343.47
2023-05-10T12:01:54.803Z,100358.47
2023-05-10T12:04:22.766Z,100358.22
2023-05-10T12:06:50.461Z,100346.03
2023-05-10T12:09:23.059Z,100358.94
2023-05-10T12:12:00.609Z,100351.88
2023-05-10T12:14:34.349Z,100348.16
2023-05-10T12:17:01.949Z,100350.06
2023-05-10T12:19:38.797Z,100342.88
2023-05-10T12:22:07.259Z,100342.75
2023-05-10T12:24:36.514Z,100350.00
2023-05-10T12:27:09.380Z,100345.13
2023-05-10T12:29:37.734Z,100343.38
2023-05-10T12:32:05.335Z,100340.75
2023-05-10T12:34:34.089Z,100338.72
2023-05-10T12:37:03.808Z,100338.47
2023-05-10T12:39:42.464Z,100328.53
2023-05-10T12:42:10.606Z,100329.81
2023-05-10T12:44:38.151Z,100329.16
2023-05-10T12:47:05.629Z,100317.00
2023-05-10T12:49:35.216Z,100308.66
2023-05-10T12:52:04.116Z,100294.75
2023-05-10T12:54:32.769Z,100292.31
2023-05-10T12:57:01.649Z,100291.06
2023-05-10T12:59:29.071Z,100284.53
2023-05-10T13:01:58.821Z,100279.44
2023-05-10T13:04:27.461Z,100287.19
2023-05-10T13:06:59.562Z,100277.16
2023-05-10T13:09:31.847Z,100266.88
2023-05-10T13:12:00.587Z,100268.56
2023-05-10T13:14:29.168Z,100274.13
2023-05-10T13:16:57.924Z,100273.72
2023-05-10T13:19:27.343Z,100268.19
2023-05-10T13:21:54.965Z,100264.31
2023-05-10T13:24:23.514Z,100265.13
2023-05-10T13:26:50.916Z,100261.84
2023-05-10T13:29:19.272Z,100245.84
2023-05-10T13:31:47.829Z,100249.44
2023-05-10T13:34:16.558Z,100255.66
2023-05-10T13:36:44.034Z,100252.63
2023-05-10T13:39:11.580Z,100266.97
2023-05-10T13:41:39.191Z,100253.00
2023-05-10T13:44:06.787Z,100247.25
2023-05-10T13:46:34.342Z,100242.22
2023-05-10T13:49:03.196Z,100237.69
2023-05-10T13:51:32.840Z,100243.59
2023-05-10T13:54:01.448Z,100237.63
2023-05-10T13:56:29.015Z,100233.25
2023-05-10T13:58:59.607Z,100227.44
2023-05-10T14:01:28.560Z,100229.25
2023-05-10T14:03:56.275Z,100231.16
2023-05-10T14:06:23.864Z,100228.53
2023-05-10T14:08:51.298Z,100227.06
2023-05-10T14:11:18.770Z,100227.53
2023-05-10T14:13:47.412Z,100223.72
2023-05-10T14:16:16.199Z,100226.75
2023-05-10T14:18:43.845Z,100219.03
2023-05-10T14:21:11.392Z,100229.13
2023-05-10T14:23:40.497Z,100220.22
2023-05-10T14:26:08.180Z,100229.59
2023-05-10T14:28:36.900Z,100234.31
2023-05-10T14:31:04.602Z,100222.56
2023-05-10T14:33:31.989Z,100223.38
2023-05-10T14:36:01.022Z,100227.13
2023-05-10T14:38:30.043Z,100224.63
2023-05-10T14:40:57.496Z,100211.09
2023-05-10T14:43:26.201Z,100217.19
2023-05-10T14:45:53.732Z,100220.94
2023-05-10T14:48:22.430Z,100221.53
2023-05-10T14:50:51.379Z,100224.75
2023-05-10T14:53:19.979Z,100219.91
2023-05-10T14:55:48.668Z,100218.75
2023-05-10T14:58:17.677Z,100222.78
2023-05-10T15:00:47.352Z,100227.66
2023-05-10T15:03:15.465Z,100229.19
2023-05-10T15:05:43.579Z,100220.25
2023-05-10T15:08:11.807Z,100226.59
2023-05-10T15:10:41.012Z,100223.72
2023-05-10T15:13:09.933Z,100219.13
2023-05-10T15:15:39.092Z,100220.00
2023-05-10T15:18:07.793Z,100221.50
2023-05-10T15:20:36.090Z,100215.56
2023-05-10T15:23:05.132Z,100222.91
2023-05-10T15:25:35.954Z,100221.94
2023-05-10T15:28:04.166Z,100224.50
2023-05-10T15:30:31.771Z,100224.63
2023-05-10T15:33:00.627Z,100227.84
2023-05-10T15:35:29.351Z,100228.78
2023-05-10T15:37:57.920Z,100217.22
2023-05-10T15:40:26.612Z,100217.00
2023-05-10T15:42:53.993Z,100226.94
2023-05-10T15:45:21.760Z,100221.16
2023-05-10T15:47:49.386Z,100225.13
2023-05-10T15:50:17.445Z,100226.41
2023-05-10T15:52:46.092Z,100227.50
2023-05-10T15:55:13.702Z,100235.47
2023-05-10T15:57:42.879Z,100229.03
2023-05-10T16:00:12.249Z,100225.75
2023-05-10T16:02:41.145Z,100218.19
2023-05-10T16:05:09.858Z,100218.16
2023-05-10T16:07:37.591Z,100226.47
2023-05-10T16:10:06.776Z,100213.25
2023-05-10T16:12:34.430Z,100215.50
2023-05-10T16:15:02.006Z,100218.44
2023-05-10T16:17:29.553Z,100222.06
2023-05-10T16:19:58.131Z,100215.41
2023-05-10T16:22:28.906Z,100216.78
2023-05-10T16:24:58.116Z,100228.50
2023-05-10T16:27:28.695Z,100221.91
2023-05-10T16:29:57.491Z,100228.81
2023-05-10T16:32:25.270Z,100227.47
2023-05-10T16:34:53.541Z,100239.06
2023-05-10T16:37:22.203Z,100233.94
2023-05-10T16:39:49.698Z,100237.56
2023-05-10T16:42:17.687Z,100233.59
2023-05-10T16:44:45.139Z,100237.03
2023-05-10T16:47:12.736Z,100236.75
2023-05-10T16:49:40.348Z,100238.47
2023-05-10T16:52:07.813Z,100247.44
2023-05-10T16:54:36.499Z,100249.13
2023-05-10T16:57:04.145Z,100246.81
2023-05-10T16:59:31.758Z,100248.72
2023-05-10T17:01:59.196Z,100256.06
2023-05-10T17:04:27.091Z,100252.91
2023-05-10T17:06:54.608Z,100249.44
2023-05-10T17:09:22.101Z,100253.56
2023-05-10T17:11:49.553Z,100255.69
2023-05-10T17:14:17.123Z,100255.22
2023-05-10T17:16:44.673Z,100253.06
2023-05-10T17:19:12.218Z,100256.63
2023-05-10T17:21:40.019Z,100252.31
2023-05-10T17:24:07.668Z,100264.22
2023-05-10T17:26:35.079Z,100261.34
2023-05-10T17:29:05.554Z,100269.84
2023-05-10T17:31:33.332Z,100271.75
2023-05-10T17:34:01.808Z,100262.66
2023-05-10T17:36:31.092Z,100266.28
2023-05-10T17:38:59.780Z,100262.06
2023-05-10T17:41:29.020Z,100271.78
2023-05-10T17:43:57.604Z,100267.59
2023-05-10T17:46:24.634Z,100274.56
2023-05-10T17:48:53.510Z,100270.44
2023-05-10T17:51:22.158Z,100269.44
2023-05-10T17:53:49.893Z,100277.66
2023-05-10T17:56:18.543Z,100277.56
2023-05-10T17:58:45.508Z,100278.56
2023-05-10T18:01:18.468Z,100277.50
2023-05-10T18:03:46.426Z,100276.34
2023-05-10T18:06:13.851Z,100277.03
2023-05-10T18:08:42.691Z,100280.38
2023-05-10T18:11:09.808Z,100280.47
2023-05-10T18:13:36.729Z,100288.59
2023-05-10T18:16:06.178Z,100282.81
2023-05-10T18:18:33.149Z,100289.97
2023-05-10T18:20:59.973Z,100298.34
2023-05-10T18:23:27.058Z,100301.75
2023-05-10T18:25:55.678Z,100304.31
2023-05-10T18:28:24.698Z,100309.81
2023-05-10T18:30:52.398Z,100311.13
2023-05-10T18:33:19.382Z,100316.47
2023-05-10T18:35:46.677Z,100315.22
2023-05-10T18:38:13.936Z,100325.72
2023-05-10T18:43:50.169Z,100326.06
2023-05-10T18:46:18.926Z,100329.41
2023-05-10T18:48:49.315Z,100341.44
2023-05-10T18:51:24.632Z,100331.47
2023-05-10T18:53:51.808Z,100329.75
2023-05-10T18:56:18.930Z,100336.81
2023-05-10T18:58:46.435Z,100338.38
2023-05-10T19:01:13.435Z,100338.50
2023-05-10T19:03:40.371Z,100349.53
2023-05-10T19:06:07.544Z,100350.47
2023-05-10T19:08:34.512Z,100347.97
2023-05-10T19:11:01.765Z,100348.28
2023-05-10T19:13:29.338Z,100346.84
2023-05-10T19:16:06.725Z,100351.16
2023-05-10T19:18:34.428Z,100351.84
2023-05-10T19:21:06.033Z,100354.97
2023-05-10T19:23:34.053Z,100360.94
2023-05-10T19:26:02.351Z,100356.63
2023-05-10T19:28:31.984Z,100358.97
2023-05-10T19:30:59.139Z,100355.44
2023-05-10T19:33:28.485Z,100360.25
2023-05-10T19:35:56.109Z,100363.81
2023-05-10T19:38:24.536Z,100360.44
2023-05-10T19:41:00.837Z,100362.22
2023-05-10T19:43:31.442Z,100359.53
2023-05-10T19:46:02.036Z,100357.75
2023-05-10T19:48:31.769Z,100364.09
2023-05-10T19:51:04.567Z,100370.22
2023-05-10T19:53:33.187Z,100368.91
2023-05-10T19:56:07.288Z,100366.44
2023-05-10T19:58:35.153Z,100375.22
2023-05-10T20:01:02.739Z,100363.56
2023-05-10T20:03:29.990Z,100370.13
2023-05-10T20:05:57.202Z,100373.75
2023-05-10T20:08:26.188Z,100365.31
2023-05-10T20:10:53.475Z,100374.13
2023-05-10T20:13:20.561Z,100365.28
2023-05-10T20:15:48.436Z,100363.50
2023-05-10T20:18:18.407Z,100368.09
2023-05-10T20:20:47.404Z,100373.97
2023-05-10T20:23:15.469Z,100374.72
2023-05-10T20:25:45.209Z,100378.50
2023-05-10T20:28:13.469Z,100382.63
2023-05-10T20:30:41.333Z,100381.50
2023-05-10T20:33:11.190Z,100382.16
2023-05-10T20:35:40.377Z,100387.56
2023-05-10T20:38:08.273Z,100392.72
2023-05-10T20:40:37.705Z,100379.50
2023-05-10T20:43:07.705Z,100387.13
2023-05-10T20:45:36.882Z,100380.94
2023-05-10T20:48:07.115Z,100378.41
2023-05-10T20:50:38.000Z,100370.69
2023-05-10T20:53:05.305Z,100374.19
2023-05-10T20:55:32.379Z,100371.47
2023-05-10T20:57:59.262Z,100375.25
2023-05-10T21:00:26.208Z,100370.09
2023-05-10T21:02:55.300Z,100373.03
2023-05-10T21:05:22.370Z,100364.25
2023-05-10T21:07:54.249Z,100359.84
2023-05-10T21:10:21.852Z,100368.28
2023-05-10T21:12:48.657Z,100375.31
2023-05-10T21:15:15.704Z,100357.94
2023-05-10T21:17:46.234Z,100358.97
2023-05-10T21:20:14.564Z,100356.47
2023-05-10T21:22:41.546Z,100366.22
2023-05-10T21:25:08.928Z,100362.97
2023-05-10T21:27:37.645Z,100368.25
2023-05-10T21:30:04.974Z,100357.66
2023-05-10T21:32:41.400Z,100362.91
2023-05-10T21:35:10.322Z,100356.97
2023-05-10T21:37:37.224Z,100354.28
2023-05-10T21:40:04.970Z,100351.59
2023-05-10T21:42:35.017Z,100357.94
2023-05-10T21:45:01.888Z,100353.31
2023-05-10T21:47:28.798Z,100351.63
2023-05-10T21:49:55.606Z,100356.06
2023-05-10T21:52:22.429Z,100357.72
2023-05-10T21:54:53.001Z,100356.81
2023-05-10T21:57:21.524Z,100365.47
2023-05-10T21:59:48.226Z,100360.41
2023-05-10T22:02:15.376Z,100358.69
2023-05-10T22:04:42.133Z,100358.50
2023-05-10T22:07:10.929Z,100355.03
2023-05-10T22:09:38.147Z,100349.94
2023-05-10T22:12:05.315Z,100353.47
2023-05-10T22:14:32.126Z,100348.28
2023-05-10T22:16:59.128Z,100343.94
2023-05-10T22:19:26.109Z,100350.19
2023-05-10T22:21:53.490Z,100346.59
2023-05-10T22:24:20.265Z,100346.56
2023-05-10T22:26:47.350Z,100356.16
2023-05-10T22:29:14.154Z,100348.31
2023-05-10T22:31:41.818Z,100350.13
2023-05-10T22:34:08.712Z,100351.06
2023-05-10T22:36:35.562Z,100355.41
2023-05-10T22:39:02.467Z,100351.00
2023-05-10T22:41:30.203Z,100356.22
2023-05-10T22:43:58.963Z,100352.00
2023-05-10T22:46:25.900Z,100350.97
2023-05-10T22:48:53.329Z,100354.66
2023-05-10T22:51:20.341Z,100345.94
2023-05-10T22:53:47.264Z,100358.28
2023-05-10T22:56:14.241Z,100354.78
2023-05-10T22:58:41.159Z,100361.00
2023-05-10T23:01:08.517Z,100367.91
2023-05-10T23:03:36.088Z,100352.16
2023-05-10T23:06:02.894Z,100360.00
2023-05-10T23:08:29.785Z,100355.75
2023-05-10T23:10:56.960Z,100365.41
2023-05-10T23:13:24.716Z,100359.19
2023-05-10T23:15:53.703Z,100357.47
2023-05-10T23:18:21.022Z,100347.97
2023-05-10T23:20:48.647Z,100353.28
2023-05-10T23:23:15.807Z,100360.16
2023-05-10T23:25:42.767Z,100359.25
2023-05-10T23:28:11.657Z,100354.94
2023-05-10T23:30:41.678Z,100342.00
2023-05-10T23:33:08.704Z,100355.06
2023-05-10T23:35:35.771Z,100349.88
2023-05-10T23:38:03.315Z,100351.78
2023-05-10T23:40:30.124Z,100350.91
2023-05-10T23:42:57.102Z,100343.88
2023-05-10T23:45:26.097Z,100347.53
2023-05-10T23:47:53.175Z,100347.53
2023-05-10T23:50:20.030Z,100333.50
2023-05-10T23:52:47.203Z,100338.66
2023-05-10T23:55:14.157Z,100336.03
2023-05-10T23:57:41.060Z,100343.06
